createdAt,value
2023-12-23T00:01:10.003Z,99633.44
2023-12-23T00:03:38.322Z,99647.22
2023-12-23T00:06:06.926Z,99638.41
2023-12-23T00:08:35.348Z,99636.75
2023-12-23T00:11:03.559Z,99636.69
2023-12-23T00:13:32.238Z,99630.63
2023-12-23T00:16:00.583Z,99628.03
2023-12-23T00:18:28.662Z,99628.25
2023-12-23T00:20:57.778Z,99618.56
2023-12-23T00:23:25.730Z,99624.53
2023-12-23T00:25:53.772Z,99628.91
2023-12-23T00:28:21.759Z,99635.09
2023-12-23T00:30:49.817Z,99634.88
2023-12-23T00:33:17.804Z,99632.31
2023-12-23T00:35:45.796Z,99644.59
2023-12-23T00:38:14.176Z,99633.44
2023-12-23T00:40:42.152Z,99632.53
2023-12-23T00:43:11.216Z,99636.13
2023-12-23T00:45:39.537Z,99634.28
2023-12-23T00:48:09.079Z,99634.22
2023-12-23T00:50:37.407Z,99630.28
2023-12-23T00:53:05.662Z,99648.41
2023-12-23T00:55:33.969Z,99640.59
2023-12-23T00:58:02.337Z,99637.72
2023-12-23T01:00:31.623Z,99637.00
2023-12-23T01:02:59.588Z,99639.34
2023-12-23T01:05:27.529Z,99637.31
2023-12-23T01:07:55.517Z,99628.69
2023-12-23T01:10:25.751Z,99628.81
2023-12-23T01:12:53.792Z,99642.69
2023-12-23T01:15:22.433Z,99644.97
2023-12-23T01:17:51.088Z,99655.19
2023-12-23T01:20:19.422Z,99649.00
2023-12-23T01:22:48.427Z,99669.97
2023-12-23T01:25:16.827Z,99657.69
2023-12-23T01:27:45.110Z,99664.66
2023-12-23T01:30:14.085Z,99656.94
2023-12-23T01:32:42.074Z,99664.13
2023-12-23T01:35:10.250Z,99655.41
2023-12-23T01:37:38.654Z,99660.78
2023-12-23T01:40:07.855Z,99657.13
2023-12-23T01:42:35.822Z,99663.09
2023-12-23T01:45:04.299Z,99666.59
2023-12-23T01:47:32.886Z,99681.13
2023-12-23T01:50:01.134Z,99679.81
2023-12-23T01:52:29.228Z,99695.09
2023-12-23T01:54:57.485Z,99694.88
2023-12-23T01:57:25.773Z,99703.28
2023-12-23T01:59:53.787Z,99726.41
2023-12-23T02:02:23.476Z,99735.41
2023-12-23T02:04:53.469Z,99734.28
2023-12-23T02:07:21.395Z,99749.19
2023-12-23T02:09:49.504Z,99758.94
2023-12-23T02:12:41.515Z,99771.00
2023-12-23T02:15:15.757Z,99776.19
2023-12-23T02:17:44.235Z,99781.31
2023-12-23T02:20:14.150Z,99785.53
2023-12-23T02:22:42.223Z,99790.53
2023-12-23T02:25:12.494Z,99795.59
2023-12-23T02:27:51.241Z,99801.56
2023-12-23T02:30:20.494Z,99800.59
2023-12-23T02:32:49.436Z,99794.38
2023-12-23T02:35:17.697Z,99804.75
2023-12-23T02:37:45.658Z,99806.56
2023-12-23T02:40:13.951Z,99807.44
2023-12-23T02:42:41.778Z,99811.75
2023-12-23T02:45:10.293Z,99820.38
2023-12-23T02:47:38.674Z,99807.44
2023-12-23T02:50:08.825Z,99817.72
2023-12-23T02:52:36.931Z,99809.97
2023-12-23T02:55:05.272Z,99812.41
2023-12-23T02:57:33.561Z,99803.69
2023-12-23T03:00:01.428Z,99803.53
2023-12-23T03:02:29.457Z,99804.09
2023-12-23T03:04:57.597Z,99795.22
2023-12-23T03:07:25.726Z,99795.75
2023-12-23T03:09:53.641Z,99793.66
2023-12-23T03:12:21.669Z,99781.28
2023-12-23T03:14:49.562Z,99773.25
2023-12-23T03:17:17.540Z,99770.78
2023-12-23T03:19:45.526Z,99761.00
2023-12-23T03:22:14.078Z,99752.78
2023-12-23T03:24:43.752Z,99740.59
2023-12-23T03:27:11.754Z,99744.88
2023-12-23T03:29:39.896Z,99739.50
2023-12-23T03:32:09.031Z,99746.44
2023-12-23T03:34:37.278Z,99771.00
2023-12-23T03:37:05.760Z,99789.94
2023-12-23T03:39:33.754Z,99791.78
2023-12-23T03:42:02.189Z,99779.63
2023-12-23T03:44:30.363Z,99799.47
2023-12-23T03:46:58.771Z,99803.84
2023-12-23T03:49:26.689Z,99810.94
2023-12-23T03:51:55.790Z,99823.81
2023-12-23T03:54:23.786Z,99822.06
2023-12-23T03:56:52.329Z,99840.94
2023-12-23T03:59:20.322Z,99840.78
2023-12-23T04:01:48.768Z,99851.22
2023-12-23T04:04:16.807Z,99855.34
2023-12-23T04:06:44.834Z,99858.75
2023-12-23T04:09:13.753Z,99866.41
2023-12-23T04:11:41.688Z,99861.28
2023-12-23T04:14:09.998Z,99872.34
2023-12-23T04:16:41.426Z,99867.16
2023-12-23T04:19:09.558Z,99871.41
2023-12-23T04:21:38.210Z,99866.00
2023-12-23T04:24:08.023Z,99871.13
2023-12-23T04:26:36.763Z,99870.97
2023-12-23T04:29:04.778Z,99871.72
2023-12-23T04:31:32.786Z,99882.88
2023-12-23T04:34:00.857Z,99870.69
2023-12-23T04:36:28.900Z,99871.38
2023-12-23T04:38:56.853Z,99862.75
2023-12-23T04:41:24.821Z,99870.25
2023-12-23T04:43:52.962Z,99876.28
2023-12-23T04:46:20.882Z,99876.19
2023-12-23T04:48:48.904Z,99855.09
2023-12-23T04:51:17.283Z,99855.72
2023-12-23T04:53:45.538Z,99853.19
2023-12-23T04:56:13.807Z,99841.78
2023-12-23T04:58:42.317Z,99840.91
2023-12-23T05:01:10.272Z,99835.66
2023-12-23T05:03:38.248Z,99841.91
2023-12-23T05:06:06.600Z,99843.75
2023-12-23T05:08:35.002Z,99843.75
2023-12-23T05:11:03.023Z,99843.03
2023-12-23T05:13:31.196Z,99829.63
2023-12-23T05:15:59.408Z,99841.41
2023-12-23T05:18:27.436Z,99835.25
2023-12-23T05:20:55.495Z,99842.16
2023-12-23T05:23:23.704Z,99831.97
2023-12-23T05:25:51.756Z,99841.84
2023-12-23T05:28:19.748Z,99842.84
2023-12-23T05:30:49.872Z,99843.72
2023-12-23T05:33:20.133Z,99848.31
2023-12-23T05:35:48.265Z,99862.97
2023-12-23T05:38:16.218Z,99856.31
2023-12-23T05:40:44.269Z,99870.91
2023-12-23T05:43:12.199Z,99859.88
2023-12-23T05:45:40.633Z,99862.50
2023-12-23T05:48:09.444Z,99867.03
2023-12-23T05:50:37.409Z,99863.28
2023-12-23T05:53:05.610Z,99863.47
2023-12-23T05:55:33.975Z,99863.41
2023-12-23T05:58:02.089Z,99862.72
2023-12-23T06:00:30.069Z,99858.38
2023-12-23T06:02:57.904Z,99856.22
2023-12-23T06:05:26.129Z,99854.50
2023-12-23T06:07:56.279Z,99860.56
2023-12-23T06:10:24.277Z,99851.03
2023-12-23T06:12:52.673Z,99851.00
2023-12-23T06:15:20.747Z,99854.41
2023-12-23T06:17:49.789Z,99848.41
2023-12-23T06:20:17.950Z,99856.13
2023-12-23T06:22:45.991Z,99855.31
2023-12-23T06:25:14.061Z,99854.34
2023-12-23T06:27:42.600Z,99862.97
2023-12-23T06:30:11.982Z,99862.00
2023-12-23T06:32:41.280Z,99862.91
2023-12-23T06:35:10.259Z,99873.25
2023-12-23T06:37:39.844Z,99875.13
2023-12-23T06:40:09.515Z,99871.66
2023-12-23T06:42:37.473Z,99875.06
2023-12-23T06:45:06.460Z,99868.91
2023-12-23T06:47:34.650Z,99872.50
2023-12-23T06:50:02.901Z,99881.03
2023-12-23T06:52:31.043Z,99877.56
2023-12-23T06:54:59.081Z,99884.31
2023-12-23T06:57:27.297Z,99885.94
2023-12-23T06:59:56.085Z,99892.00
2023-12-23T07:02:23.989Z,99885.91
2023-12-23T07:04:52.241Z,99888.63
2023-12-23T07:07:20.538Z,99893.78
2023-12-23T07:09:55.239Z,99901.44
2023-12-23T07:12:29.318Z,99905.75
2023-12-23T07:14:57.817Z,99902.28
2023-12-23T07:17:38.054Z,99904.81
2023-12-23T07:20:11.682Z,99914.25
2023-12-23T07:22:39.861Z,99911.50
2023-12-23T07:25:08.321Z,99900.97
2023-12-23T07:27:36.328Z,99908.69
2023-12-23T07:30:05.172Z,99909.38
2023-12-23T07:32:34.312Z,99921.59
2023-12-23T07:35:02.669Z,99920.66
2023-12-23T07:37:30.617Z,99928.44
2023-12-23T07:39:58.628Z,99930.16
2023-12-23T07:42:27.028Z,99924.97
2023-12-23T07:44:54.902Z,99937.81
2023-12-23T07:47:23.067Z,99945.53
2023-12-23T07:49:51.559Z,99929.16
2023-12-23T07:52:19.449Z,99942.97
2023-12-23T07:54:47.353Z,99935.13
2023-12-23T07:57:15.425Z,99935.06
2023-12-23T07:59:45.568Z,99932.53
2023-12-23T08:02:14.076Z,99937.63
2023-12-23T08:04:42.620Z,99938.50
2023-12-23T08:07:10.695Z,99943.72
2023-12-23T08:09:38.642Z,99944.78
2023-12-23T08:12:07.900Z,99945.53
2023-12-23T08:14:36.389Z,99947.28
2023-12-23T08:17:04.387Z,99944.69
2023-12-23T08:19:33.022Z,99940.22
2023-12-23T08:22:00.966Z,99951.59
2023-12-23T08:24:29.160Z,99965.25
2023-12-23T08:26:58.689Z,99970.22
2023-12-23T08:29:26.986Z,99972.63
2023-12-23T08:31:55.321Z,99980.28
2023-12-23T08:34:23.379Z,99983.63
2023-12-23T08:36:51.444Z,99983.53
2023-12-23T08:39:19.579Z,99979.00
2023-12-23T08:41:47.527Z,99972.00
2023-12-23T08:44:15.705Z,99964.09
2023-12-23T08:46:43.634Z,99967.50
2023-12-23T08:49:11.648Z,99974.28
2023-12-23T08:51:39.771Z,99977.63
2023-12-23T08:54:07.875Z,99983.63
2023-12-23T08:56:35.815Z,99979.09
2023-12-23T08:59:04.319Z,99991.09
2023-12-23T09:01:32.252Z,99978.81
2023-12-23T09:04:00.566Z,99989.19
2023-12-23T09:06:28.550Z,99986.50
2023-12-23T09:08:58.923Z,99992.47
2023-12-23T09:11:27.213Z,100000.31
2023-12-23T09:13:55.531Z,99995.84
2023-12-23T09:16:23.491Z,99995.84
2023-12-23T09:18:51.578Z,99993.25
2023-12-23T09:21:19.948Z,99988.66
2023-12-23T09:23:47.830Z,99986.81
2023-12-23T09:26:15.347Z,99991.13
2023-12-23T09:28:43.340Z,99991.94
2023-12-23T09:31:11.341Z,99995.56
2023-12-23T09:33:40.965Z,100004.88
2023-12-23T09:36:09.341Z,100007.84
2023-12-23T09:38:37.347Z,99999.22
2023-12-23T09:41:07.252Z,100001.94
2023-12-23T09:43:35.274Z,100005.34
2023-12-23T09:46:06.118Z,99999.22
2023-12-23T09:48:34.312Z,99998.94
2023-12-23T09:51:02.434Z,100013.44
2023-12-23T09:53:37.459Z,100008.38
2023-12-23T09:56:06.605Z,100004.81
2023-12-23T09:58:36.061Z,99997.84
2023-12-23T10:01:04.179Z,99999.53
2023-12-23T10:03:32.353Z,100010.63
2023-12-23T10:06:03.304Z,100009.88
2023-12-23T10:08:31.498Z,100002.03
2023-12-23T10:10:59.370Z,100005.63
2023-12-23T10:13:27.677Z,99995.97
2023-12-23T10:15:56.420Z,100004.63
2023-12-23T10:18:24.863Z,100005.47
2023-12-23T10:20:52.862Z,100003.50
2023-12-23T10:23:21.219Z,100006.00
2023-12-23T10:25:49.259Z,100008.59
2023-12-23T10:28:20.320Z,100002.53
2023-12-23T10:30:51.743Z,100003.22
2023-12-23T10:33:28.280Z,100008.31
2023-12-23T10:36:00.795Z,100011.78
2023-12-23T10:38:29.444Z,100016.00
2023-12-23T10:41:22.420Z,100009.09
2023-12-23T10:43:51.615Z,99996.00
2023-12-23T10:46:23.018Z,99997.63
2023-12-23T10:48:53.433Z,99988.78
2023-12-23T10:51:22.639Z,99996.59
2023-12-23T10:53:54.333Z,99991.28
2023-12-23T10:56:24.403Z,99987.84
2023-12-23T10:58:52.906Z,99995.34
2023-12-23T11:01:25.032Z,99995.34
2023-12-23T11:04:01.688Z,100002.94
2023-12-23T11:06:34.965Z,100001.94
2023-12-23T11:09:05.353Z,100004.69
2023-12-23T11:11:34.879Z,100012.34
2023-12-23T11:14:05.863Z,100005.31
2023-12-23T11:16:33.826Z,100010.63
2023-12-23T11:19:03.422Z,100012.97
2023-12-23T11:21:33.064Z,100010.41
2023-12-23T11:24:01.319Z,100006.06
2023-12-23T11:26:43.455Z,100013.81
2023-12-23T11:29:22.479Z,100005.16
2023-12-23T11:31:51.775Z,100009.47
2023-12-23T11:34:21.700Z,100008.59
2023-12-23T11:36:49.922Z,100015.50
2023-12-23T11:39:20.742Z,100018.06
2023-12-23T11:41:50.548Z,100019.69
2023-12-23T11:44:20.156Z,100021.38
2023-12-23T11:46:48.264Z,100016.13
2023-12-23T11:49:16.296Z,100017.66
2023-12-23T11:51:45.107Z,100020.94
2023-12-23T11:54:15.421Z,100021.75
2023-12-23T11:56:43.681Z,100026.03
2023-12-23T11:59:11.742Z,100027.88
2023-12-23T12:01:39.939Z,100023.56
2023-12-23T12:04:08.032Z,100028.50
2023-12-23T12:06:36.614Z,100033.59
2023-12-23T12:09:09.077Z,100041.50
2023-12-23T12:11:38.654Z,100035.41
2023-12-23T12:14:08.283Z,100038.13
2023-12-23T12:16:39.081Z,100030.31
2023-12-23T12:19:07.270Z,100040.03
2023-12-23T12:21:35.653Z,100047.03
2023-12-23T12:24:03.784Z,100051.22
2023-12-23T12:26:31.819Z,100055.63
2023-12-23T12:29:00.195Z,100060.72
2023-12-23T12:31:28.649Z,100070.22
2023-12-23T12:33:57.052Z,100077.88
2023-12-23T12:36:25.713Z,100076.00
2023-12-23T12:38:54.894Z,100072.59
2023-12-23T12:41:24.238Z,100083.66
2023-12-23T12:43:56.518Z,100082.09
2023-12-23T12:46:24.643Z,100074.75
2023-12-23T12:48:53.498Z,100075.63
2023-12-23T12:51:21.556Z,100070.34
2023-12-23T12:53:50.471Z,100083.38
2023-12-23T12:56:22.816Z,100089.41
2023-12-23T12:58:52.947Z,100084.53
2023-12-23T13:01:24.058Z,100083.53
2023-12-23T13:03:52.276Z,100081.88
2023-12-23T13:06:20.509Z,100086.28
2023-12-23T13:08:48.667Z,100075.94
2023-12-23T13:11:17.456Z,100081.16
2023-12-23T13:13:46.635Z,100089.97
2023-12-23T13:16:14.810Z,100084.06
2023-12-23T13:18:49.562Z,100091.00
2023-12-23T13:21:25.359Z,100088.47
2023-12-23T13:23:53.401Z,100086.66
2023-12-23T13:26:21.288Z,100081.56
2023-12-23T13:28:52.163Z,100077.47
2023-12-23T13:31:23.053Z,100069.59
2023-12-23T13:33:51.020Z,100060.13
2023-12-23T13:36:18.942Z,100064.69
2023-12-23T13:38:47.199Z,100071.50
2023-12-23T13:41:20.016Z,100078.38
2023-12-23T13:43:48.788Z,100078.31
2023-12-23T13:46:16.691Z,100081.78
2023-12-23T13:48:44.798Z,100081.75
2023-12-23T13:51:12.909Z,100080.81
2023-12-23T13:53:40.857Z,100084.16
2023-12-23T13:56:10.291Z,100094.69
2023-12-23T13:58:38.435Z,100102.28
2023-12-23T14:01:07.638Z,100099.06
2023-12-23T14:03:36.882Z,100114.44
2023-12-23T14:06:05.338Z,100120.38
2023-12-23T14:08:34.752Z,100121.25
2023-12-23T14:11:03.701Z,100129.00
2023-12-23T14:13:31.709Z,100125.56
2023-12-23T14:15:59.768Z,100130.97
2023-12-23T14:18:27.831Z,100131.75
2023-12-23T14:20:56.541Z,100135.22
2023-12-23T14:23:24.980Z,100143.59
2023-12-23T14:25:52.883Z,100147.13
2023-12-23T14:28:20.807Z,100153.16
2023-12-23T14:30:49.226Z,100162.72
2023-12-23T14:33:17.329Z,100157.53
2023-12-23T14:35:45.313Z,100167.78
2023-12-23T14:38:13.619Z,100165.19
2023-12-23T14:40:41.620Z,100175.56
2023-12-23T14:43:09.832Z,100174.84
2023-12-23T14:45:37.867Z,100171.34
2023-12-23T14:48:06.776Z,100172.88
2023-12-23T14:50:36.639Z,100177.38
2023-12-23T14:53:04.711Z,100179.78
2023-12-23T14:55:33.913Z,100179.06
2023-12-23T14:58:01.849Z,100174.69
2023-12-23T15:00:29.841Z,100181.59
2023-12-23T15:02:58.056Z,100179.88
2023-12-23T15:05:27.376Z,100186.75
2023-12-23T15:07:55.549Z,100187.50
2023-12-23T15:10:25.379Z,100190.22
2023-12-23T15:12:54.879Z,100199.75
2023-12-23T15:15:22.788Z,100210.97
2023-12-23T15:17:51.254Z,100222.16
2023-12-23T15:20:19.206Z,100216.81
2023-12-23T15:22:47.371Z,100213.44
2023-12-23T15:25:15.336Z,100224.56
2023-12-23T15:27:43.238Z,100215.81
2023-12-23T15:30:12.623Z,100211.63
2023-12-23T15:32:40.813Z,100208.03
2023-12-23T15:35:09.573Z,100215.00
2023-12-23T15:37:37.724Z,100207.91
2023-12-23T15:40:07.966Z,100205.38
2023-12-23T15:42:35.866Z,100203.56
2023-12-23T15:45:04.165Z,100204.56
2023-12-23T15:47:32.273Z,100211.31
2023-12-23T15:50:00.961Z,100212.34
2023-12-23T15:52:28.997Z,100214.91
2023-12-23T15:54:57.349Z,100219.28
2023-12-23T15:57:26.648Z,100214.97
2023-12-23T15:59:54.771Z,100214.91
2023-12-23T16:02:23.376Z,100215.66
2023-12-23T16:04:52.788Z,100217.47
2023-12-23T16:07:20.813Z,100207.97
2023-12-23T16:09:49.172Z,100201.88
2023-12-23T16:12:18.033Z,100186.25
2023-12-23T16:14:46.082Z,100184.47
2023-12-23T16:17:14.320Z,100180.97
2023-12-23T16:19:42.192Z,100179.25
2023-12-23T16:22:10.547Z,100175.66
2023-12-23T16:24:39.561Z,100172.44
2023-12-23T16:27:07.518Z,100159.47
2023-12-23T16:29:35.619Z,100171.75
2023-12-23T16:32:04.369Z,100166.53
2023-12-23T16:34:32.579Z,100159.59
2023-12-23T16:37:00.489Z,100151.78
2023-12-23T16:39:28.537Z,100137.91
2023-12-23T16:41:56.376Z,100136.19
2023-12-23T16:44:25.939Z,100131.00
2023-12-23T16:46:54.024Z,100128.41
2023-12-23T16:49:23.835Z,100125.81
2023-12-23T16:51:51.819Z,100123.09
2023-12-23T16:54:19.698Z,100117.00
2023-12-23T16:56:47.714Z,100110.94
2023-12-23T16:59:15.588Z,100098.72
2023-12-23T17:01:43.576Z,100090.19
2023-12-23T17:04:11.622Z,100089.22
2023-12-23T17:06:39.740Z,100082.25
2023-12-23T17:09:07.953Z,100067.44
2023-12-23T17:11:35.854Z,100073.56
2023-12-23T17:14:03.777Z,100073.56
2023-12-23T17:16:31.698Z,100064.69
2023-12-23T17:19:00.446Z,100063.09
2023-12-23T17:21:28.888Z,100065.72
2023-12-23T17:23:56.793Z,100063.00
2023-12-23T17:26:25.358Z,100055.16
2023-12-23T17:28:53.695Z,100056.63
2023-12-23T17:31:21.626Z,100053.84
2023-12-23T17:33:49.846Z,100053.63
2023-12-23T17:36:18.096Z,100044.06
2023-12-23T17:38:47.601Z,100058.72
2023-12-23T17:41:15.764Z,100040.44
2023-12-23T17:43:45.849Z,100052.44
2023-12-23T17:46:15.116Z,100048.16
2023-12-23T17:48:43.076Z,100046.38
2023-12-23T17:51:11.587Z,100054.97
2023-12-23T17:53:41.463Z,100047.94
2023-12-23T17:56:11.257Z,100056.69
2023-12-23T17:58:41.218Z,100046.22
2023-12-23T18:01:10.439Z,100047.94
2023-12-23T18:03:38.984Z,100056.63
2023-12-23T18:06:07.286Z,100049.78
2023-12-23T18:08:35.509Z,100041.06
2023-12-23T18:11:04.420Z,100053.16
2023-12-23T18:13:32.464Z,100054.88
2023-12-23T18:16:00.348Z,100048.16
2023-12-23T18:18:28.379Z,100053.25
2023-12-23T18:20:56.455Z,100054.06
2023-12-23T18:23:24.723Z,100064.47
2023-12-23T18:25:53.794Z,100067.09
2023-12-23T18:28:21.706Z,100071.53
2023-12-23T18:30:49.807Z,100061.00
2023-12-23T18:33:17.973Z,100060.16
2023-12-23T18:35:47.374Z,100069.53
2023-12-23T18:38:15.431Z,100064.44
2023-12-23T18:40:45.695Z,100063.56
2023-12-23T18:43:14.049Z,100059.94
2023-12-23T18:45:42.204Z,100064.28
2023-12-23T18:48:11.444Z,100069.69
2023-12-23T18:50:39.419Z,100086.97
2023-12-23T18:53:07.406Z,100090.28
2023-12-23T18:55:38.216Z,100079.94
2023-12-23T18:58:08.421Z,100075.56
2023-12-23T19:00:37.054Z,100081.66
2023-12-23T19:03:10.137Z,100074.56
2023-12-23T19:05:39.579Z,100072.03
2023-12-23T19:08:13.908Z,100069.31
2023-12-23T19:10:44.587Z,100067.53
2023-12-23T19:13:13.275Z,100072.66
2023-12-23T19:15:41.761Z,100067.44
2023-12-23T19:18:09.931Z,100072.84
2023-12-23T19:20:37.941Z,100060.72
2023-12-23T19:23:08.696Z,100075.44
2023-12-23T19:25:37.911Z,100065.88
2023-12-23T19:28:06.815Z,100071.81
2023-12-23T19:30:34.830Z,100060.56
2023-12-23T19:33:02.828Z,100064.78
2023-12-23T19:35:31.223Z,100070.13
2023-12-23T19:38:02.081Z,100071.81
2023-12-23T19:40:31.044Z,100073.56
2023-12-23T19:42:58.962Z,100071.91
2023-12-23T19:45:28.099Z,100076.91
2023-12-23T19:47:56.334Z,100078.59
2023-12-23T19:50:25.415Z,100075.06
2023-12-23T19:52:54.560Z,100072.38
2023-12-23T19:55:22.756Z,100074.91
2023-12-23T19:57:50.661Z,100077.44
2023-12-23T20:00:19.046Z,100068.09
2023-12-23T20:02:47.962Z,100057.78
2023-12-23T20:05:16.301Z,100050.88
2023-12-23T20:07:44.312Z,100055.06
2023-12-23T20:10:12.366Z,100055.06
2023-12-23T20:12:40.218Z,100056.81
2023-12-23T20:15:09.508Z,100062.69
2023-12-23T20:17:38.020Z,100057.53
2023-12-23T20:20:07.508Z,100060.84
2023-12-23T20:22:35.923Z,100067.81
2023-12-23T20:25:04.589Z,100062.63
2023-12-23T20:27:32.510Z,100067.09
2023-12-23T20:30:00.777Z,100053.19
2023-12-23T20:32:29.855Z,100061.78
2023-12-23T20:34:57.846Z,100064.34
2023-12-23T20:37:27.323Z,100063.44
2023-12-23T20:39:55.225Z,100060.72
2023-12-23T20:42:25.879Z,100062.63
2023-12-23T20:44:53.762Z,100057.41
2023-12-23T20:47:21.753Z,100058.19
2023-12-23T20:49:50.190Z,100057.19
2023-12-23T20:52:18.029Z,100054.75
2023-12-23T20:54:47.000Z,100053.16
2023-12-23T20:57:14.989Z,100054.88
2023-12-23T20:59:45.100Z,100053.91
2023-12-23T21:02:13.429Z,100051.25
2023-12-23T21:04:41.798Z,100043.28
2023-12-23T21:07:11.290Z,100039.22
2023-12-23T21:09:39.626Z,100046.97
2023-12-23T21:12:08.246Z,100045.22
2023-12-23T21:14:36.524Z,100033.22
2023-12-23T21:17:07.006Z,100029.78
2023-12-23T21:19:35.282Z,100033.94
2023-12-23T21:22:04.083Z,100024.41
2023-12-23T21:24:32.004Z,100016.44
2023-12-23T21:27:01.202Z,100022.41
2023-12-23T21:29:29.808Z,100015.56
2023-12-23T21:31:57.794Z,100024.41
2023-12-23T21:34:28.098Z,100028.03
2023-12-23T21:36:56.222Z,100025.34
2023-12-23T21:39:24.086Z,100026.09
2023-12-23T21:41:52.038Z,100022.53
2023-12-23T21:44:19.965Z,100014.13
2023-12-23T21:46:50.439Z,100006.97
2023-12-23T21:49:18.703Z,100011.41
2023-12-23T21:51:46.719Z,100020.88
2023-12-23T21:54:14.819Z,100009.63
2023-12-23T21:56:42.838Z,100004.56
2023-12-23T21:59:11.011Z,100004.59
2023-12-23T22:01:38.900Z,99997.63
2023-12-23T22:04:06.787Z,100004.38
2023-12-23T22:06:35.055Z,99988.69
2023-12-23T22:09:03.104Z,99992.25
2023-12-23T22:11:31.108Z,99985.56
2023-12-23T22:13:59.049Z,99987.13
2023-12-23T22:16:27.030Z,99977.56
2023-12-23T22:18:55.040Z,99982.66
2023-12-23T22:21:23.057Z,99970.66
2023-12-23T22:23:51.388Z,99975.63
2023-12-23T22:26:20.323Z,99972.09
2023-12-23T22:28:48.255Z,99967.03
2023-12-23T22:31:16.239Z,99968.84
2023-12-23T22:33:44.552Z,99967.03
2023-12-23T22:36:12.721Z,99958.31
2023-12-23T22:38:40.966Z,99947.91
2023-12-23T22:41:10.616Z,99944.53
2023-12-23T22:43:38.628Z,99940.81
2023-12-23T22:46:06.740Z,99946.09
2023-12-23T22:48:34.810Z,99945.97
2023-12-23T22:51:02.695Z,99947.00
2023-12-23T22:53:30.669Z,99931.41
2023-12-23T22:55:58.531Z,99923.72
2023-12-23T22:58:26.538Z,99934.00
2023-12-23T23:00:54.473Z,99930.47
2023-12-23T23:03:22.550Z,99933.06
2023-12-23T23:05:50.845Z,99932.16
2023-12-23T23:08:18.987Z,99921.63
2023-12-23T23:10:47.302Z,99922.75
2023-12-23T23:13:15.584Z,99909.94
2023-12-23T23:15:43.832Z,99913.50
2023-12-23T23:18:12.195Z,99906.53
2023-12-23T23:20:40.425Z,99904.84
2023-12-23T23:23:09.522Z,99901.19
2023-12-23T23:25:37.457Z,99902.13
2023-12-23T23:28:05.596Z,99892.25
2023-12-23T23:30:33.839Z,99898.41
2023-12-23T23:33:02.015Z,99903.81
2023-12-23T23:35:30.556Z,99893.44
2023-12-23T23:37:58.724Z,99879.34
2023-12-23T23:40:26.622Z,99895.28
2023-12-23T23:42:54.816Z,99869.50
2023-12-23T23:45:22.833Z,99877.06
2023-12-23T23:47:51.395Z,99868.66
2023-12-23T23:50:19.506Z,99869.25
2023-12-23T23:52:47.596Z,99865.03
2023-12-23T23:55:15.704Z,99866.22
2023-12-23T23:57:44.290Z,99869.06
